Miles City, Montana
Current Conditions -  °F | °C
As of 3:53 PM on Saturday 25 Oct 2014 (Local Time) from KMLS Reporting Station
Clear Clear  
Wind Chill: 72°   Ceiling: Unl
Heat Index: 72°   Visibility: 10mi
Dew Point: 35°   Wind: 16mph
Humidity: 26%   Direction: 120°ESE
Pressure: 29.84"   Gusts: NA
Location:  46.41°N, 105.84°W
Report Text: KMLS 252153Z AUTO 12014KT 10SM CLR 22/02 A2984 RMK AO2 SLP100 T02220017
Loading
Personal Weather Stations






























Interactive Weather Map
Tropical Storm Tracking
New forecast layout! Learn more

10-Day Weather Forecast

Advertisements
Track Severe Weather on mobile